Search for airport 
image banner adimage banner adimage banner ad
image banner ad

CYSY - Sachs Harbour (David Nasogaluak Jr. Saaryuaq)

Located in , Canada

ICAO - CYSY, IATA - YSY

Data provided by Airmate  

General information

Coordinates: N71°59'37" W125°14'29"
Elevation is 282 feet MSL.
Magnetic variation is 21.9050° East
View others Airports in Northwest Territories

Operational data

Special qualification required
Current time UTC:
Current local time:
Weather
METAR: CYSY 221700Z 13014KT 4SM -SN BR BKN005 M02/M02 A2950 RMK FG2ST4 SLP999
TAF: TAF CYSY 221451Z 2215/2223 13015KT 1/4SM -SN FZFG OVC005 BECMG 2216/2218 P6SM NSW FEW006 FM221900 13015KT P6SM FEW006 BKN220 RMK NXT FCST BY 221900Z
View NOTAMs / SUP AIP / TFR affecting this airport [VIEW]
Communications frequencies: [VIEW]

Runways:

RWY identifierQFULength (ft)Width (ft)SurfaceLDA (ft)
0884°400298GRAVE4002
26264°400298GRAVE4002

Airport contact information

Address: Canada

Satellite view of CYSY